tititudorancea.com
Station Historical Data
Daily Summary for March 15, 2019 Units:  Metric    English   Both
« Previous Day
Next Day »
Daily Weekly Monthly Yearly Custom
  High: Low: Average:
Temperature: -17.8 °C 9.4 °C 10.6 °C
Dew Point: -17.8 °C 7.6 °C 8.1 °C
Humidity: Humidity % 59 % 84 %
Wind Speed: 0 km/h 5.6 km/h 11.7 km/h
Wind Gust: 0 km/h - -
Wind:- - SSW
Pressure: 0 hPa 1015.8 hPa -
Precipitation: 0 mm    
Historical Graphs
 
 
Ararat weather Find more about Weather in Ararat, AU


 



 


Tabular Data for March 15, 2019
Time Temperature Dew Point Pressure Wind Wind Speed Wind Gust Humidity Rainfall Rate (Hourly)
-17.8 °C -17.8 °C 0 hPa Calm     Humidity % 0 mm
00:04 11.2 °C 8.1 °C 1016.8 hPa South 13 km/h 9.3 km/h 81 % 0 mm
00:09 11.2 °C 8 °C 1016.8 hPa South 11.3 km/h 7.1 km/h 81 % 0 mm
00:14 11.1 °C 7.9 °C 1016.8 hPa South 16.7 km/h 9.8 km/h 81 % 0 mm
00:19 11.1 °C 7.9 °C 1016.8 hPa South 11.1 km/h 6 km/h 81 % 0 mm
00:24 11.1 °C 7.9 °C 1016.8 hPa South 16.7 km/h 7.7 km/h 81 % 0 mm
00:29 11 °C 8.1 °C 1016.8 hPa South 14.8 km/h 6.1 km/h 82 % 0 mm
00:34 11 °C 8.1 °C 1016.8 hPa South 13 km/h 6.4 km/h 82 % 0 mm
00:39 10.9 °C 8 °C 1016.8 hPa South 9.3 km/h 7.6 km/h 82 % 0 mm
00:44 10.9 °C 8 °C 1016.8 hPa South 9.3 km/h 6.6 km/h 82 % 0 mm
00:49 10.9 °C 7.9 °C 1016.8 hPa South 11.1 km/h 6 km/h 82 % 0 mm
00:54 10.8 °C 7.9 °C 1016.8 hPa South 7.4 km/h 6.1 km/h 82 % 0 mm
00:59 10.8 °C 7.8 °C 1016.8 hPa North 9.3 km/h 6.3 km/h 82 % 0 mm
01:04 10.7 °C 7.9 °C 1016.8 hPa South 13 km/h 4.7 km/h 83 % 0 mm
01:09 10.7 °C 7.9 °C 1016.8 hPa South 7.4 km/h 5.1 km/h 83 % 0 mm
01:14 10.6 °C 7.8 °C 1016.8 hPa South 9.3 km/h 5.6 km/h 83 % 0 mm
01:19 10.6 °C 7.8 °C 1016.8 hPa South 7.4 km/h 3.7 km/h 83 % 0 mm
01:24 10.5 °C 7.9 °C 1016.8 hPa South 13 km/h 9 km/h 84 % 0 mm
01:29 10.5 °C 7.9 °C 1016.5 hPa South 11.1 km/h 8.4 km/h 84 % 0 mm
01:34 10.5 °C 7.9 °C 1016.5 hPa North 13 km/h 9.5 km/h 84 % 0 mm
01:39 10.4 °C 7.8 °C 1016.5 hPa South 9.3 km/h 5.8 km/h 84 % 0 mm
01:44 10.4 °C 7.8 °C 1016.5 hPa South 13 km/h 6 km/h 84 % 0 mm
01:49 10.4 °C 7.8 °C 1016.5 hPa South 6.4 km/h 4.2 km/h 84 % 0 mm
01:54 10.3 °C 7.7 °C 1016.5 hPa South 5.6 km/h 6 km/h 84 % 0 mm
01:59 10.3 °C 7.9 °C 1016.5 hPa South 11.1 km/h 6.9 km/h 85 % 0 mm
02:04 10.3 °C 7.9 °C 1016.5 hPa South 7.4 km/h 6.1 km/h 85 % 0 mm
02:09 10.3 °C 7.9 °C 1016.5 hPa South 9.3 km/h 7.4 km/h 85 % 0 mm
02:14 10.3 °C 7.9 °C 1016.5 hPa South 13 km/h 8 km/h 85 % 0 mm
02:19 10.2 °C 8 °C 1016.5 hPa South 9.3 km/h 5 km/h 86 % 0 mm
02:24 10.2 °C 7.9 °C 1016.5 hPa South 11.1 km/h 5.5 km/h 86 % 0 mm
02:29 10.1 °C 7.9 °C 1016.5 hPa South 9.3 km/h 5.6 km/h 86 % 0 mm
02:34 10.1 °C 7.9 °C 1016.5 hPa South 5.6 km/h 3.7 km/h 86 % 0 mm
02:39 10.1 °C 8.1 °C 1016.5 hPa South 11.1 km/h 5.1 km/h 87 % 0 mm
02:44 10.1 °C 8.1 °C 1016.5 hPa South 5.6 km/h 4 km/h 87 % 0 mm
02:49 10 °C 7.8 °C 1016.5 hPa South 7.4 km/h 2.9 km/h 86 % 0 mm
02:54 9.9 °C 7.7 °C 1016.5 hPa North 9.3 km/h 6.1 km/h 86 % 0 mm
02:59 9.9 °C 7.8 °C 1016.5 hPa South 7.4 km/h 4.5 km/h 87 % 0 mm
03:04 9.8 °C 7.7 °C 1016.5 hPa South 9.3 km/h 6.3 km/h 87 % 0 mm
03:09 9.7 °C 7.6 °C 1016.5 hPa South 6.4 km/h 5.3 km/h 87 % 0 mm
03:14 9.6 °C 7.6 °C 1016.1 hPa North 9.3 km/h 6.8 km/h 87 % 0 mm
03:19 9.6 °C 7.7 °C 1016.5 hPa South 11.1 km/h 7.2 km/h 88 % 0 mm
03:23 9.6 °C 7.7 °C 1016.1 hPa South 5.6 km/h 4 km/h 88 % 0 mm
03:29 9.5 °C 7.6 °C 1016.1 hPa North 7.4 km/h 4.3 km/h 88 % 0 mm
03:34 9.5 °C 7.6 °C 1016.1 hPa South 11.1 km/h 7.2 km/h 88 % 0 mm
03:39 9.4 °C 7.6 °C 1016.1 hPa North 13 km/h 7.4 km/h 88 % 0 mm
03:44 9.5 °C 7.8 °C 1016.1 hPa South 7.4 km/h 2.7 km/h 89 % 0 mm
03:49 9.5 °C 7.8 °C 1016.1 hPa South 7.4 km/h 6.6 km/h 89 % 0 mm
03:54 9.6 °C 7.8 °C 1015.8 hPa South 9.3 km/h 5.3 km/h 89 % 0 mm
03:59 9.6 °C 7.9 °C 1016.1 hPa South 8 km/h 6.1 km/h 89 % 0 mm
04:04 9.7 °C 8 °C 1016.1 hPa South 11.1 km/h 5.5 km/h 89 % 0 mm
04:09 9.8 °C 8.1 °C 1016.1 hPa North 11.1 km/h 6.9 km/h 89 % 0 mm
04:14 9.9 °C 8.2 °C 1016.1 hPa South 13 km/h 7.6 km/h 89 % 0 mm
04:19 10 °C 8.3 °C 1016.1 hPa South 14.5 km/h 8.2 km/h 89 % 0 mm
04:24 10 °C 8.3 °C 1016.1 hPa South 11.1 km/h 5 km/h 89 % 0 mm
04:29 10.1 °C 8.3 °C 1016.1 hPa South 9.7 km/h 7.1 km/h 89 % 0 mm
04:34 10.1 °C 8.4 °C 1016.1 hPa South 9.3 km/h 7.6 km/h 89 % 0 mm
04:39 10.1 °C 8.2 °C 1016.1 hPa North 13 km/h 9.5 km/h 88 % 0 mm
04:44 10.1 °C 8.2 °C 1016.1 hPa South 12.9 km/h 8.4 km/h 88 % 0 mm
04:49 10.1 °C 8.2 °C 1016.1 hPa South 11.1 km/h 7.1 km/h 88 % 0 mm
04:54 10.1 °C 8.2 °C 1016.1 hPa South 11.1 km/h 9.2 km/h 88 % 0 mm
04:59 10 °C 8.1 °C 1016.1 hPa South 11.1 km/h 8 km/h 88 % 0 mm
05:04 9.9 °C 8.1 °C 1016.1 hPa South 7.4 km/h 2.7 km/h 88 % 0 mm
05:09 9.8 °C 7.9 °C 1016.1 hPa South 9.3 km/h 2.9 km/h 88 % 0 mm
05:14 9.8 °C 7.9 °C 1016.1 hPa North 9.3 km/h 4.7 km/h 88 % 0 mm
05:19 9.7 °C 7.8 °C 1016.1 hPa North 7.4 km/h 5.8 km/h 88 % 0 mm
05:24 9.7 °C 7.9 °C 1016.1 hPa South 12.9 km/h 6.6 km/h 89 % 0 mm
05:29 9.7 °C 8 °C 1016.1 hPa South 12.9 km/h 8.4 km/h 89 % 0 mm
05:34 9.7 °C 7.9 °C 1016.5 hPa North 7.4 km/h 6.9 km/h 89 % 0 mm
05:39 9.6 °C 7.9 °C 1016.5 hPa South 11.1 km/h 5.6 km/h 89 % 0 mm
05:44 9.6 °C 7.8 °C 1016.5 hPa South 13 km/h 7.6 km/h 89 % 0 mm
05:49 9.5 °C 7.8 °C 1016.5 hPa South 9.3 km/h 4.8 km/h 89 % 0 mm
05:54 9.5 °C 7.8 °C 1016.5 hPa South 11.3 km/h 9 km/h 89 % 0 mm
05:59 9.5 °C 7.8 °C 1016.5 hPa North 7.4 km/h 4 km/h 89 % 0 mm
06:04 9.5 °C 7.9 °C 1016.5 hPa South 13 km/h 8.5 km/h 90 % 0 mm
06:09 9.6 °C 8 °C 1016.5 hPa South 11.1 km/h 9.2 km/h 90 % 0 mm
06:14 9.7 °C 8.1 °C 1016.5 hPa North 14.8 km/h 10 km/h 90 % 0 mm
06:19 9.7 °C 8.2 °C 1016.5 hPa South 13 km/h 8 km/h 90 % 0 mm
06:24 9.7 °C 8.2 °C 1016.5 hPa South 7.4 km/h 7.1 km/h 90 % 0 mm
06:29 9.8 °C 8.2 °C 1016.5 hPa South 11.1 km/h 8.7 km/h 90 % 0 mm
06:34 9.8 °C 8.1 °C 1016.5 hPa North 11.1 km/h 9.3 km/h 89 % 0 mm
06:39 9.8 °C 8.1 °C 1016.5 hPa North 13 km/h 8.9 km/h 89 % 0 mm
06:44 9.8 °C 8.1 °C 1016.8 hPa North 14.8 km/h 6.3 km/h 89 % 0 mm
06:49 9.8 °C 8.1 °C 1016.8 hPa South 16.7 km/h 8.4 km/h 89 % 0 mm
06:54 9.9 °C 8.2 °C 1016.8 hPa North 14.8 km/h 9.3 km/h 89 % 0 mm
06:59 9.9 °C 8.2 °C 1016.8 hPa South 9.3 km/h 6.3 km/h 89 % 0 mm
07:04 9.8 °C 8.1 °C 1016.8 hPa South 11.1 km/h 8.4 km/h 89 % 0 mm
07:09 9.8 °C 8.1 °C 1016.8 hPa South 14.8 km/h 8.4 km/h 89 % 0 mm
07:14 9.9 °C 8.2 °C 1016.8 hPa South 14.8 km/h 9.3 km/h 89 % 0 mm
07:19 9.9 °C 8.2 °C 1016.8 hPa South 13 km/h 10 km/h 89 % 0 mm
07:24 9.9 °C 8.2 °C 1017.2 hPa South 13 km/h 10 km/h 89 % 0 mm
07:29 9.9 °C 8.2 °C 1017.2 hPa South 11.3 km/h 10.1 km/h 89 % 0 mm
07:34 9.9 °C 8.2 °C 1017.2 hPa North 13 km/h 10.9 km/h 89 % 0 mm
07:39 9.9 °C 8.2 °C 1017.2 hPa South 11.1 km/h 7.7 km/h 89 % 0 mm
07:44 10 °C 8.3 °C 1017.2 hPa South 11.1 km/h 9.5 km/h 89 % 0 mm
07:49 10.1 °C 8.2 °C 1017.2 hPa South 11.3 km/h 6.3 km/h 88 % 0 mm
07:54 10.2 °C 8.5 °C 1017.2 hPa South 9.3 km/h 6.4 km/h 89 % 0 mm
07:59 10.4 °C 8.5 °C 1017.5 hPa South 11.1 km/h 5.1 km/h 88 % 0 mm
08:04 10.6 °C 8.7 °C 1017.5 hPa South 14.5 km/h 10.1 km/h 88 % 0 mm
08:09 10.8 °C 8.9 °C 1017.8 hPa South 14.8 km/h 9.3 km/h 88 % 0 mm
08:14 10.9 °C 8.8 °C 1017.8 hPa South 11.1 km/h 10.6 km/h 87 % 0 mm
08:19 11 °C 8.9 °C 1018.2 hPa South 16.7 km/h 9.5 km/h 87 % 0 mm
08:24 11.1 °C 9 °C 1018.2 hPa North 18.5 km/h 12.7 km/h 87 % 0 mm
08:29 11.2 °C 9.1 °C 1018.2 hPa South 13 km/h 11.4 km/h 87 % 0 mm
08:34 11.3 °C 9.2 °C 1018.2 hPa South 14.8 km/h 9.8 km/h 87 % 0 mm
08:39 11.5 °C 9.4 °C 1018.2 hPa South 20.4 km/h 14.3 km/h 87 % 0 mm
08:44 11.7 °C 9.6 °C 1018.2 hPa South 14.8 km/h 14.8 km/h 87 % 0 mm
08:49 12 °C 9.9 °C 1018.2 hPa SE 13 km/h 12.9 km/h 87 % 0 mm
08:54 12.2 °C 9.9 °C 1018.2 hPa SSE 20.4 km/h 10 km/h 86 % 0 mm
08:59 12.4 °C 9.9 °C 1018.5 hPa SSE 14.8 km/h 8.7 km/h 85 % 0 mm
09:00 12.4 °C 9.9 °C 1018.5 hPa SSE 9.7 km/h 24.1 km/h 85 % 0 mm
20:09 18.4 °C 10.3 °C 1018.2 hPa SE 18.5 km/h 13 km/h 59 % 0 mm
20:14 18.2 °C 10.3 °C 1018.2 hPa SE 20.9 km/h 15.4 km/h 60 % 0 mm
20:19 18.1 °C 10.4 °C 1018.2 hPa SE 20.4 km/h 11.9 km/h 61 % 0 mm
20:24 17.9 °C 10.5 °C 1018.5 hPa SE 18.5 km/h 10.8 km/h 62 % 0 mm
20:29 17.7 °C 10.6 °C 1018.5 hPa SE 20.4 km/h 8.7 km/h 63 % 0 mm
20:34 17.5 °C 10.6 °C 1018.5 hPa SE 24.1 km/h 14.3 km/h 64 % 0 mm
20:39 17.3 °C 10.4 °C 1018.5 hPa SE 24.1 km/h 7.1 km/h 64 % 0 mm
20:44 17.2 °C 10.6 °C 1018.5 hPa SE 20.4 km/h 15.8 km/h 65 % 0 mm
20:49 17 °C 10.6 °C 1018.5 hPa SE 16.7 km/h 9.7 km/h 66 % 0 mm
20:52 17 °C 10.6 °C 1018.5 hPa SE 9.3 km/h 9.7 km/h 66 % 0 mm
Ararat Weather
Compliments of Weather Underground - 1.5 mb
Click here to send mail.


ABOUT

Live weather data from Ararat, Victoria, Australia, 3377
Data uploaded from Cumulus every 5 minutes to Weather Underground.
This site then downloads the raw data for formatting and display.
Metric and imperial data can be displayed. Graphs and historical data available.
Includes Sun and Moon times and rain image live from BOM.

Check out Ararat Weather on Facebook, Twitter and Google +

Help support ongoing costs by checking out the ads





Follow @AraratWeather